createdAt,value
2019-03-28T00:00:27.196Z,1027.28
2019-03-28T00:01:27.171Z,1027.26
2019-03-28T00:02:27.159Z,1027.30
2019-03-28T00:03:27.268Z,1027.29
2019-03-28T00:04:27.124Z,1027.28
2019-03-28T00:05:27.105Z,1027.31
2019-03-28T00:06:27.088Z,1027.30
2019-03-28T00:07:27.068Z,1027.32
2019-03-28T00:08:27.045Z,1027.30
2019-03-28T00:09:27.027Z,1027.26
2019-03-28T00:10:27.013Z,1027.31
2019-03-28T00:11:26.993Z,1027.31
2019-03-28T00:12:26.974Z,1027.25
2019-03-28T00:13:26.965Z,1027.29
2019-03-28T00:14:26.948Z,1027.27
2019-03-28T00:15:26.920Z,1027.26
2019-03-28T00:16:26.903Z,1027.32
2019-03-28T00:17:26.890Z,1027.30
2019-03-28T00:18:26.866Z,1027.32
2019-03-28T00:19:26.846Z,1027.35
2019-03-28T00:20:26.834Z,1027.34
2019-03-28T00:21:26.815Z,1027.38
2019-03-28T00:22:26.803Z,1027.35
2019-03-28T00:23:26.777Z,1027.35
2019-03-28T00:24:26.759Z,1027.36
2019-03-28T00:25:26.743Z,1027.39
2019-03-28T00:26:30.326Z,1027.37
2019-03-28T00:27:26.705Z,1027.37
2019-03-28T00:28:26.687Z,1027.38
2019-03-28T00:29:26.668Z,1027.32
2019-03-28T00:30:26.655Z,1027.36
2019-03-28T00:31:26.634Z,1027.40
2019-03-28T00:32:26.671Z,1027.39
2019-03-28T00:33:26.597Z,1027.40
2019-03-28T00:34:26.577Z,1027.40
2019-03-28T00:35:26.562Z,1027.43
2019-03-28T00:36:26.540Z,1027.48
2019-03-28T00:37:26.524Z,1027.43
2019-03-28T00:38:26.503Z,1027.47
2019-03-28T00:39:26.495Z,1027.51
2019-03-28T00:40:26.471Z,1027.48
2019-03-28T00:41:26.451Z,1027.48
2019-03-28T00:42:26.433Z,1027.42
2019-03-28T00:43:26.416Z,1027.41
2019-03-28T00:44:26.398Z,1027.40
2019-03-28T00:45:26.382Z,1027.40
2019-03-28T00:46:26.362Z,1027.42
2019-03-28T00:47:26.345Z,1027.37
2019-03-28T00:48:27.139Z,1027.36
2019-03-28T00:49:26.308Z,1027.32
2019-03-28T00:50:26.290Z,1027.29
2019-03-28T00:51:26.274Z,1027.26
2019-03-28T00:52:26.254Z,1027.30
2019-03-28T00:53:26.244Z,1027.26
2019-03-28T00:54:26.221Z,1027.27
2019-03-28T00:55:26.199Z,1027.31
2019-03-28T00:56:26.186Z,1027.30
2019-03-28T00:57:26.163Z,1027.30
2019-03-28T00:58:26.149Z,1027.33
2019-03-28T00:59:26.145Z,1027.34
2019-03-28T01:00:26.109Z,1027.31
2019-03-28T01:01:26.092Z,1027.32
2019-03-28T01:02:26.074Z,1027.29
2019-03-28T01:03:26.064Z,1027.29
2019-03-28T01:04:26.037Z,1027.23
2019-03-28T01:05:26.019Z,1027.26
2019-03-28T01:06:26.004Z,1027.27
2019-03-28T01:07:25.985Z,1027.24
2019-03-28T01:08:25.966Z,1027.23
2019-03-28T01:09:25.951Z,1027.22
2019-03-28T01:10:25.931Z,1027.21
2019-03-28T01:11:25.913Z,1027.20
2019-03-28T01:12:25.891Z,1027.22
2019-03-28T01:13:25.876Z,1027.19
2019-03-28T01:14:25.862Z,1027.22
2019-03-28T01:15:25.839Z,1027.18
2019-03-28T01:16:25.821Z,1027.19
2019-03-28T01:17:25.807Z,1027.18
2019-03-28T01:18:25.788Z,1027.16
2019-03-28T01:19:25.765Z,1027.17
2019-03-28T01:20:26.242Z,1027.18
2019-03-28T01:21:25.730Z,1027.13
2019-03-28T01:22:25.715Z,1027.14
2019-03-28T01:23:25.693Z,1027.12
2019-03-28T01:24:25.677Z,1027.16
2019-03-28T01:25:25.661Z,1027.14
2019-03-28T01:26:25.642Z,1027.12
2019-03-28T01:27:25.625Z,1027.16
2019-03-28T01:28:25.606Z,1027.12
2019-03-28T01:29:25.590Z,1027.15
2019-03-28T01:30:25.576Z,1027.16
2019-03-28T01:31:25.555Z,1027.16
2019-03-28T01:32:25.535Z,1027.15
2019-03-28T01:33:25.526Z,1027.16
2019-03-28T01:34:25.518Z,1027.15
2019-03-28T01:35:25.483Z,1027.16
2019-03-28T01:36:25.463Z,1027.17
2019-03-28T01:37:25.445Z,1027.19
2019-03-28T01:38:25.425Z,1027.19
2019-03-28T01:39:25.405Z,1027.20
2019-03-28T01:40:26.187Z,1027.22
2019-03-28T01:41:25.370Z,1027.20
2019-03-28T01:42:25.360Z,1027.17
2019-03-28T01:43:25.332Z,1027.19
2019-03-28T01:44:25.324Z,1027.19
2019-03-28T01:45:25.301Z,1027.18
2019-03-28T01:46:25.315Z,1027.22
2019-03-28T01:47:25.271Z,1027.19
2019-03-28T01:48:25.246Z,1027.18
2019-03-28T01:49:25.227Z,1027.14
2019-03-28T01:50:25.212Z,1027.16
2019-03-28T01:51:25.187Z,1027.15
2019-03-28T01:52:25.170Z,1027.11
2019-03-28T01:53:25.152Z,1027.14
2019-03-28T01:54:25.135Z,1027.13
2019-03-28T01:55:25.117Z,1027.15
2019-03-28T01:56:25.305Z,1027.14
2019-03-28T01:57:25.081Z,1027.11
2019-03-28T01:58:25.064Z,1027.12
2019-03-28T01:59:25.042Z,1027.13
2019-03-28T02:00:25.026Z,1027.13
2019-03-28T02:01:25.008Z,1027.11
2019-03-28T02:02:24.990Z,1027.15
2019-03-28T02:03:24.974Z,1027.12
2019-03-28T02:04:24.953Z,1027.11
2019-03-28T02:05:24.936Z,1027.13
2019-03-28T02:06:24.919Z,1027.13
2019-03-28T02:07:25.248Z,1027.08
2019-03-28T02:08:25.093Z,1027.08
2019-03-28T02:09:24.868Z,1027.08
2019-03-28T02:10:24.845Z,1027.11
2019-03-28T02:11:24.825Z,1027.14
2019-03-28T02:12:24.810Z,1027.15
2019-03-28T02:13:24.788Z,1027.14
2019-03-28T02:14:24.772Z,1027.15
2019-03-28T02:15:24.752Z,1027.12
2019-03-28T02:16:24.736Z,1027.16
2019-03-28T02:17:24.717Z,1027.12
2019-03-28T02:18:24.701Z,1027.15
2019-03-28T02:19:24.680Z,1027.14
2019-03-28T02:20:24.667Z,1027.12
2019-03-28T02:21:24.644Z,1027.12
2019-03-28T02:22:24.634Z,1027.10
2019-03-28T02:23:24.608Z,1027.12
2019-03-28T02:24:24.592Z,1027.10
2019-03-28T02:25:24.572Z,1027.10
2019-03-28T02:26:24.553Z,1027.10
2019-03-28T02:27:24.760Z,1027.16
2019-03-28T02:28:24.518Z,1027.13
2019-03-28T02:29:24.504Z,1027.17
2019-03-28T02:30:24.905Z,1027.13
2019-03-28T02:31:24.466Z,1027.17
2019-03-28T02:32:24.445Z,1027.18
2019-03-28T02:33:25.466Z,1027.19
2019-03-28T02:34:24.409Z,1027.19
2019-03-28T02:35:24.393Z,1027.22
2019-03-28T02:36:24.374Z,1027.17
2019-03-28T02:37:24.358Z,1027.20
2019-03-28T02:38:24.339Z,1027.24
2019-03-28T02:39:24.507Z,1027.19
2019-03-28T02:40:24.301Z,1027.22
2019-03-28T02:41:24.285Z,1027.23
2019-03-28T02:42:24.274Z,1027.21
2019-03-28T02:43:24.255Z,1027.23
2019-03-28T02:44:24.229Z,1027.32
2019-03-28T02:45:24.212Z,1027.29
2019-03-28T02:46:24.201Z,1027.31
2019-03-28T02:47:24.176Z,1027.31
2019-03-28T02:48:24.151Z,1027.34
2019-03-28T02:49:24.134Z,1027.33
2019-03-28T02:50:24.120Z,1027.35
2019-03-28T02:51:24.096Z,1027.34
2019-03-28T02:52:24.079Z,1027.36
2019-03-28T02:53:24.066Z,1027.34
2019-03-28T02:54:24.042Z,1027.35
2019-03-28T02:55:24.057Z,1027.29
2019-03-28T02:56:24.008Z,1027.32
2019-03-28T02:57:39.594Z,1027.32
2019-03-28T02:58:23.973Z,1027.31
2019-03-28T02:59:23.961Z,1027.31
2019-03-28T03:00:23.933Z,1027.29
2019-03-28T03:01:23.916Z,1027.33
2019-03-28T03:02:23.905Z,1027.30
2019-03-28T03:03:23.884Z,1027.32
2019-03-28T03:04:23.859Z,1027.31
2019-03-28T03:05:23.843Z,1027.29
2019-03-28T03:06:23.824Z,1027.36
2019-03-28T03:07:23.806Z,1027.35
2019-03-28T03:08:23.787Z,1027.33
2019-03-28T03:09:23.768Z,1027.33
2019-03-28T03:10:23.751Z,1027.35
2019-03-28T03:11:23.745Z,1027.35
2019-03-28T03:12:23.713Z,1027.35
2019-03-28T03:13:23.696Z,1027.34
2019-03-28T03:14:23.678Z,1027.34
2019-03-28T03:15:23.746Z,1027.37
2019-03-28T03:16:23.637Z,1027.37
2019-03-28T03:17:23.626Z,1027.37
2019-03-28T03:18:23.626Z,1027.39
2019-03-28T03:19:23.583Z,1027.40
2019-03-28T03:20:23.567Z,1027.44
2019-03-28T03:21:23.546Z,1027.43
2019-03-28T03:22:23.751Z,1027.45
2019-03-28T03:23:23.508Z,1027.48
2019-03-28T03:24:23.491Z,1027.51
2019-03-28T03:25:23.479Z,1027.48
2019-03-28T03:26:23.455Z,1027.50
2019-03-28T03:27:23.435Z,1027.50
2019-03-28T03:28:23.418Z,1027.52
2019-03-28T03:29:23.399Z,1027.53
2019-03-28T03:30:23.397Z,1027.56
2019-03-28T03:31:24.854Z,1027.54
2019-03-28T03:32:23.348Z,1027.54
2019-03-28T03:33:23.331Z,1027.55
2019-03-28T03:34:23.312Z,1027.55
2019-03-28T03:35:23.290Z,1027.55
2019-03-28T03:36:23.269Z,1027.53
2019-03-28T03:37:23.253Z,1027.54
2019-03-28T03:38:23.249Z,1027.51
2019-03-28T03:39:23.219Z,1027.50
2019-03-28T03:40:23.197Z,1027.53
2019-03-28T03:41:23.190Z,1027.53
2019-03-28T03:42:23.163Z,1027.56
2019-03-28T03:43:23.509Z,1027.52
2019-03-28T03:44:23.122Z,1027.56
2019-03-28T03:45:23.106Z,1027.57
2019-03-28T03:46:23.095Z,1027.55
2019-03-28T03:47:23.067Z,1027.54
2019-03-28T03:48:23.047Z,1027.54
2019-03-28T03:49:23.031Z,1027.56
2019-03-28T03:50:23.016Z,1027.61
2019-03-28T03:51:22.997Z,1027.57
2019-03-28T03:52:22.981Z,1027.60
2019-03-28T03:53:22.963Z,1027.59
2019-03-28T03:54:22.936Z,1027.62
2019-03-28T03:55:22.925Z,1027.60
2019-03-28T03:56:22.900Z,1027.59
2019-03-28T03:57:22.883Z,1027.60
2019-03-28T03:58:22.863Z,1027.62
2019-03-28T03:59:22.847Z,1027.61
2019-03-28T04:00:22.825Z,1027.63
2019-03-28T04:01:22.809Z,1027.63
2019-03-28T04:02:22.791Z,1027.63
2019-03-28T04:03:22.769Z,1027.64
2019-03-28T04:04:22.761Z,1027.65
2019-03-28T04:05:22.735Z,1027.67
2019-03-28T04:06:22.715Z,1027.67
2019-03-28T04:07:22.706Z,1027.64
2019-03-28T04:08:22.679Z,1027.61
2019-03-28T04:09:22.658Z,1027.64
2019-03-28T04:10:22.645Z,1027.65
2019-03-28T04:11:22.630Z,1027.67
2019-03-28T04:12:22.618Z,1027.65
2019-03-28T04:13:22.583Z,1027.66
2019-03-28T04:14:22.567Z,1027.68
2019-03-28T04:15:22.546Z,1027.72
2019-03-28T04:16:22.534Z,1027.73
2019-03-28T04:17:22.531Z,1027.73
2019-03-28T04:18:22.673Z,1027.76
2019-03-28T04:19:22.483Z,1027.77
2019-03-28T04:20:22.455Z,1027.79
2019-03-28T04:21:22.444Z,1027.76
2019-03-28T04:22:22.423Z,1027.76
2019-03-28T04:23:22.397Z,1027.76
2019-03-28T04:24:22.395Z,1027.77
2019-03-28T04:25:22.379Z,1027.76
2019-03-28T04:26:22.345Z,1027.79
2019-03-28T04:27:22.327Z,1027.77
2019-03-28T04:28:31.509Z,1027.78
2019-03-28T04:29:22.288Z,1027.75
2019-03-28T04:30:22.797Z,1027.79
2019-03-28T04:31:22.251Z,1027.76
2019-03-28T04:32:22.237Z,1027.81
2019-03-28T04:33:22.229Z,1027.77
2019-03-28T04:34:22.200Z,1027.79
2019-03-28T04:35:22.182Z,1027.80
2019-03-28T04:36:22.162Z,1027.79
2019-03-28T04:37:22.165Z,1027.80
2019-03-28T04:38:22.135Z,1027.79
2019-03-28T04:39:22.109Z,1027.80
2019-03-28T04:40:22.086Z,1027.79
2019-03-28T04:41:22.070Z,1027.80
2019-03-28T04:42:22.050Z,1027.80
2019-03-28T04:43:22.032Z,1027.82
2019-03-28T04:44:22.022Z,1027.82
2019-03-28T04:45:21.994Z,1027.79
2019-03-28T04:46:22.018Z,1027.80
2019-03-28T04:47:21.958Z,1027.80
2019-03-28T04:48:21.936Z,1027.82
2019-03-28T04:49:21.919Z,1027.79
2019-03-28T04:50:21.903Z,1027.80
2019-03-28T04:51:21.894Z,1027.77
2019-03-28T04:52:21.865Z,1027.74
2019-03-28T04:53:21.849Z,1027.76
2019-03-28T04:54:21.831Z,1027.73
2019-03-28T04:55:21.817Z,1027.73
2019-03-28T04:56:21.791Z,1027.74
2019-03-28T04:57:21.775Z,1027.76
2019-03-28T04:58:22.721Z,1027.74
2019-03-28T04:59:21.731Z,1027.78
2019-03-28T05:00:21.717Z,1027.77
2019-03-28T05:01:21.701Z,1027.78
2019-03-28T05:02:21.683Z,1027.78
2019-03-28T05:03:21.659Z,1027.77
2019-03-28T05:04:21.649Z,1027.77
2019-03-28T05:05:21.626Z,1027.82
2019-03-28T05:06:21.605Z,1027.82
2019-03-28T05:07:21.584Z,1027.85
2019-03-28T05:08:21.567Z,1027.85
2019-03-28T05:09:21.547Z,1027.85
2019-03-28T05:10:21.530Z,1027.85
2019-03-28T05:11:21.516Z,1027.86
2019-03-28T05:12:21.493Z,1027.85
2019-03-28T05:13:21.480Z,1027.86
2019-03-28T05:14:21.457Z,1027.87
2019-03-28T05:15:21.438Z,1027.83
2019-03-28T05:16:21.420Z,1027.85
2019-03-28T05:17:21.400Z,1027.83
2019-03-28T05:18:21.390Z,1027.84
2019-03-28T05:19:21.364Z,1027.84
2019-03-28T05:20:21.344Z,1027.84
2019-03-28T05:21:21.325Z,1027.78
2019-03-28T05:22:21.305Z,1027.84
2019-03-28T05:23:21.290Z,1027.82
2019-03-28T05:24:21.270Z,1027.86
2019-03-28T05:25:21.251Z,1027.85
2019-03-28T05:26:21.232Z,1027.86
2019-03-28T05:27:21.215Z,1027.90
2019-03-28T05:28:21.199Z,1027.89
2019-03-28T05:29:21.175Z,1027.90
2019-03-28T05:30:21.174Z,1027.92
2019-03-28T05:31:21.142Z,1027.92
2019-03-28T05:32:21.122Z,1027.93
2019-03-28T05:33:21.112Z,1027.97
2019-03-28T05:34:21.083Z,1027.96
2019-03-28T05:35:21.064Z,1027.93
2019-03-28T05:36:21.051Z,1027.94
2019-03-28T05:37:21.034Z,1027.96
2019-03-28T05:38:21.015Z,1027.91
2019-03-28T05:39:20.993Z,1027.94
2019-03-28T05:40:22.808Z,1027.94
2019-03-28T05:41:20.954Z,1027.91
2019-03-28T05:42:20.941Z,1027.91
2019-03-28T05:43:20.920Z,1027.92
2019-03-28T05:44:20.901Z,1027.94
2019-03-28T05:45:20.882Z,1027.93
2019-03-28T05:46:20.867Z,1027.96
2019-03-28T05:47:22.255Z,1027.95
2019-03-28T05:48:20.829Z,1027.96
2019-03-28T05:49:20.807Z,1027.95
2019-03-28T05:50:20.788Z,1027.93
2019-03-28T05:51:20.771Z,1027.91
2019-03-28T05:52:20.752Z,1027.90
2019-03-28T05:53:20.746Z,1027.91
2019-03-28T05:54:20.717Z,1027.86
2019-03-28T05:55:20.696Z,1027.87
2019-03-28T05:56:20.677Z,1027.88
2019-03-28T05:57:20.657Z,1027.88
2019-03-28T05:58:20.646Z,1027.92
2019-03-28T05:59:20.628Z,1027.91
2019-03-28T06:00:20.603Z,1027.89
2019-03-28T06:01:20.586Z,1027.94
2019-03-28T06:02:20.574Z,1027.92
2019-03-28T06:03:20.546Z,1027.92
2019-03-28T06:04:20.538Z,1027.87
2019-03-28T06:05:20.515Z,1027.87
2019-03-28T06:06:20.491Z,1027.86
2019-03-28T06:07:20.475Z,1027.85
2019-03-28T06:08:20.455Z,1027.84
2019-03-28T06:09:20.447Z,1027.85
2019-03-28T06:10:20.417Z,1027.85
2019-03-28T06:11:20.398Z,1027.89
2019-03-28T06:12:20.379Z,1027.88
2019-03-28T06:13:20.363Z,1027.88
2019-03-28T06:14:20.348Z,1027.89
2019-03-28T06:15:20.323Z,1027.87
2019-03-28T06:16:20.312Z,1027.89
2019-03-28T06:17:20.288Z,1027.89
2019-03-28T06:18:20.388Z,1027.96
2019-03-28T06:19:20.250Z,1027.96
2019-03-28T06:20:20.232Z,1028.00
2019-03-28T06:21:20.212Z,1028.03
2019-03-28T06:22:20.197Z,1028.02
2019-03-28T06:23:20.178Z,1028.05
2019-03-28T06:24:20.160Z,1028.01
2019-03-28T06:25:20.160Z,1028.01
2019-03-28T06:26:20.129Z,1028.02
2019-03-28T06:27:20.107Z,1027.99
2019-03-28T06:28:20.087Z,1028.02
2019-03-28T06:29:24.111Z,1028.02
2019-03-28T06:30:20.046Z,1028.01
2019-03-28T06:31:20.028Z,1028.00
2019-03-28T06:32:20.017Z,1028.04
2019-03-28T06:33:19.992Z,1028.03
2019-03-28T06:34:19.974Z,1028.06
2019-03-28T06:35:21.924Z,1028.04
2019-03-28T06:36:19.939Z,1028.04
2019-03-28T06:37:19.924Z,1028.06
2019-03-28T06:38:19.903Z,1028.04
2019-03-28T06:39:19.885Z,1028.05
2019-03-28T06:40:19.863Z,1028.09
2019-03-28T06:41:19.845Z,1028.09
2019-03-28T06:42:19.833Z,1028.13
2019-03-28T06:43:19.808Z,1028.17
2019-03-28T06:44:19.807Z,1028.20
2019-03-28T06:45:19.772Z,1028.20
2019-03-28T06:46:19.756Z,1028.20
2019-03-28T06:47:21.250Z,1028.21
2019-03-28T06:48:19.718Z,1028.21
2019-03-28T06:49:19.703Z,1028.28
2019-03-28T06:50:19.685Z,1028.24
2019-03-28T06:51:19.664Z,1028.30
2019-03-28T06:52:19.644Z,1028.32
2019-03-28T06:53:19.630Z,1028.32
2019-03-28T06:54:19.637Z,1028.35
2019-03-28T06:55:19.592Z,1028.39
2019-03-28T06:56:19.576Z,1028.39
2019-03-28T06:57:19.555Z,1028.41
2019-03-28T06:58:19.539Z,1028.36
2019-03-28T06:59:19.520Z,1028.41
2019-03-28T07:00:19.503Z,1028.40
2019-03-28T07:01:19.484Z,1028.41
2019-03-28T07:02:21.922Z,1028.42
2019-03-28T07:03:19.456Z,1028.41
2019-03-28T07:04:19.430Z,1028.37
2019-03-28T07:05:19.410Z,1028.36
2019-03-28T07:06:19.388Z,1028.39
2019-03-28T07:07:19.369Z,1028.41
2019-03-28T07:08:19.354Z,1028.45
2019-03-28T07:09:19.336Z,1028.47
2019-03-28T07:10:19.316Z,1028.47
2019-03-28T07:11:19.302Z,1028.50
2019-03-28T07:12:19.291Z,1028.49
2019-03-28T07:13:19.266Z,1028.48
2019-03-28T07:14:19.246Z,1028.52
2019-03-28T07:15:19.225Z,1028.52
2019-03-28T07:16:21.109Z,1028.54
2019-03-28T07:17:19.189Z,1028.55
2019-03-28T07:18:19.172Z,1028.57
2019-03-28T07:19:19.156Z,1028.64
2019-03-28T07:20:19.137Z,1028.60
2019-03-28T07:21:19.118Z,1028.61
2019-03-28T07:22:19.100Z,1028.61
2019-03-28T07:23:19.084Z,1028.61
2019-03-28T07:24:19.064Z,1028.64
2019-03-28T07:25:19.046Z,1028.61
2019-03-28T07:26:19.030Z,1028.61
2019-03-28T07:27:19.007Z,1028.62
2019-03-28T07:28:18.988Z,1028.63
2019-03-28T07:29:18.977Z,1028.62
2019-03-28T07:30:19.495Z,1028.59
2019-03-28T07:31:18.938Z,1028.62
2019-03-28T07:32:18.917Z,1028.61
2019-03-28T07:33:18.954Z,1028.62
2019-03-28T07:34:18.881Z,1028.64
2019-03-28T07:35:18.867Z,1028.62
2019-03-28T07:36:18.852Z,1028.64
2019-03-28T07:37:18.848Z,1028.62
2019-03-28T07:38:18.814Z,1028.60
2019-03-28T07:39:19.344Z,1028.61
2019-03-28T07:40:18.776Z,1028.58
2019-03-28T07:41:18.754Z,1028.60
2019-03-28T07:42:18.746Z,1028.61
2019-03-28T07:43:18.724Z,1028.63
2019-03-28T07:44:18.697Z,1028.67
2019-03-28T07:45:18.679Z,1028.66
2019-03-28T07:46:18.661Z,1028.67
2019-03-28T07:47:18.642Z,1028.70
2019-03-28T07:48:18.626Z,1028.70
2019-03-28T07:49:18.606Z,1028.67
2019-03-28T07:50:18.593Z,1028.63
2019-03-28T07:51:18.571Z,1028.59
2019-03-28T07:52:20.110Z,1028.61
2019-03-28T07:53:19.982Z,1028.62
2019-03-28T07:54:18.519Z,1028.61
2019-03-28T07:55:18.500Z,1028.63
2019-03-28T07:56:18.485Z,1028.64
2019-03-28T07:57:18.474Z,1028.57
2019-03-28T07:58:18.455Z,1028.63
2019-03-28T07:59:18.427Z,1028.58
2019-03-28T08:00:18.409Z,1028.57
2019-03-28T08:01:18.393Z,1028.55
2019-03-28T08:02:18.373Z,1028.56
2019-03-28T08:03:18.356Z,1028.56
2019-03-28T08:04:18.337Z,1028.58
2019-03-28T08:05:18.320Z,1028.53
2019-03-28T08:06:18.308Z,1028.54
2019-03-28T08:07:18.282Z,1028.54
2019-03-28T08:08:18.265Z,1028.56
2019-03-28T08:09:18.248Z,1028.60
2019-03-28T08:10:18.227Z,1028.56
2019-03-28T08:11:18.252Z,1028.57
2019-03-28T08:12:22.813Z,1028.61
2019-03-28T08:13:18.186Z,1028.62
2019-03-28T08:14:18.158Z,1028.61
2019-03-28T08:15:18.144Z,1028.62
2019-03-28T08:16:18.126Z,1028.61
2019-03-28T08:17:18.107Z,1028.68
2019-03-28T08:18:18.092Z,1028.76
2019-03-28T08:19:18.074Z,1028.75
2019-03-28T08:20:18.067Z,1028.72
2019-03-28T08:21:18.044Z,1028.75
2019-03-28T08:22:18.027Z,1028.82
2019-03-28T08:23:18.008Z,1028.78
2019-03-28T08:24:17.994Z,1028.83
2019-03-28T08:25:17.981Z,1028.87
2019-03-28T08:26:17.965Z,1028.86
2019-03-28T08:27:17.958Z,1028.87
2019-03-28T08:28:17.936Z,1028.86
2019-03-28T08:29:17.921Z,1028.90
2019-03-28T08:30:19.225Z,1028.94
2019-03-28T08:31:17.898Z,1028.96
2019-03-28T08:32:17.877Z,1029.01
2019-03-28T08:33:17.868Z,1028.99
2019-03-28T08:34:18.620Z,1028.94
2019-03-28T08:35:17.837Z,1028.90
2019-03-28T08:36:17.824Z,1028.87
2019-03-28T08:37:17.824Z,1028.94
2019-03-28T08:38:17.803Z,1028.94
2019-03-28T08:39:17.791Z,1029.00
2019-03-28T08:40:17.780Z,1028.96
2019-03-28T08:41:17.764Z,1029.03
2019-03-28T08:42:17.749Z,1028.96
2019-03-28T08:43:17.736Z,1028.95
2019-03-28T08:44:17.724Z,1029.03
2019-03-28T08:45:17.713Z,1029.09
2019-03-28T08:46:17.706Z,1029.10
2019-03-28T08:47:17.692Z,1029.10
2019-03-28T08:48:17.692Z,1029.15
2019-03-28T08:49:17.668Z,1029.19
2019-03-28T08:50:17.656Z,1029.18
2019-03-28T08:51:17.639Z,1029.23
2019-03-28T08:52:17.637Z,1029.22
2019-03-28T08:53:17.618Z,1029.23
2019-03-28T08:54:17.609Z,1029.27
2019-03-28T08:55:17.613Z,1029.27
2019-03-28T08:56:17.594Z,1029.25
2019-03-28T08:57:17.568Z,1029.18
2019-03-28T08:58:17.668Z,1029.20
2019-03-28T08:59:17.546Z,1029.20
2019-03-28T09:00:32.116Z,1029.15
2019-03-28T09:01:17.522Z,1029.15
2019-03-28T09:02:17.524Z,1029.22
2019-03-28T09:03:17.512Z,1029.22
2019-03-28T09:04:17.488Z,1029.22
2019-03-28T09:05:17.477Z,1029.16
2019-03-28T09:06:17.472Z,1029.20
2019-03-28T09:07:17.690Z,1029.21
2019-03-28T09:08:17.445Z,1029.22
2019-03-28T09:09:17.429Z,1029.27
2019-03-28T09:10:17.420Z,1029.24
2019-03-28T09:11:17.467Z,1029.25
2019-03-28T09:12:17.411Z,1029.27
2019-03-28T09:13:17.387Z,1029.22
2019-03-28T09:14:17.372Z,1029.28
2019-03-28T09:15:17.360Z,1029.31
2019-03-28T09:16:17.351Z,1029.28
2019-03-28T09:17:17.349Z,1029.27
2019-03-28T09:18:17.334Z,1029.28
2019-03-28T09:19:17.310Z,1029.25
2019-03-28T09:20:17.302Z,1029.22
2019-03-28T09:21:17.286Z,1029.25
2019-03-28T09:22:17.281Z,1029.23
2019-03-28T09:23:17.262Z,1029.23
2019-03-28T09:24:17.250Z,1029.24
2019-03-28T09:25:17.236Z,1029.26
2019-03-28T09:26:17.223Z,1029.26
2019-03-28T09:27:17.211Z,1029.26
2019-03-28T09:28:17.197Z,1029.28
2019-03-28T09:29:17.182Z,1029.24
2019-03-28T09:30:17.219Z,1029.19
2019-03-28T09:31:20.252Z,1029.21
2019-03-28T09:32:17.150Z,1029.21
2019-03-28T09:33:17.138Z,1029.22
2019-03-28T09:34:17.124Z,1029.23
2019-03-28T09:35:17.107Z,1029.23
2019-03-28T09:36:17.146Z,1029.21
2019-03-28T09:37:17.079Z,1029.20
2019-03-28T09:38:17.073Z,1029.19
2019-03-28T09:39:17.057Z,1029.19
2019-03-28T09:40:17.047Z,1029.20
2019-03-28T09:41:17.039Z,1029.18
2019-03-28T09:42:17.018Z,1029.15
2019-03-28T09:43:17.006Z,1029.17
2019-03-28T09:44:16.999Z,1029.16
2019-03-28T09:45:17.005Z,1029.17
2019-03-28T09:46:16.967Z,1029.14
2019-03-28T09:47:16.954Z,1029.16
2019-03-28T09:48:16.947Z,1029.17
2019-03-28T09:49:16.931Z,1029.16
2019-03-28T09:50:16.933Z,1029.16
2019-03-28T09:51:16.909Z,1029.15
2019-03-28T09:52:16.887Z,1029.16
2019-03-28T09:53:16.877Z,1029.11
2019-03-28T09:54:16.876Z,1029.13
2019-03-28T09:55:18.849Z,1029.11
2019-03-28T09:56:16.834Z,1029.14
2019-03-28T09:57:16.827Z,1029.15
2019-03-28T09:58:16.812Z,1029.13
2019-03-28T09:59:16.800Z,1029.12
2019-03-28T10:00:16.790Z,1029.13
2019-03-28T10:01:16.778Z,1029.05
2019-03-28T10:02:16.759Z,1029.15
2019-03-28T10:03:16.741Z,1029.12
2019-03-28T10:04:16.731Z,1029.12
2019-03-28T10:05:16.717Z,1029.09
2019-03-28T10:06:16.701Z,1029.14
2019-03-28T10:07:16.691Z,1029.11
2019-03-28T10:08:16.671Z,1029.13
2019-03-28T10:09:16.661Z,1029.04
2019-03-28T10:10:16.650Z,1029.05
2019-03-28T10:11:16.641Z,1029.04
2019-03-28T10:12:16.630Z,1029.05
2019-03-28T10:13:16.610Z,1029.06
2019-03-28T10:14:16.591Z,1028.99
2019-03-28T10:15:17.188Z,1029.07
2019-03-28T10:16:16.560Z,1029.11
2019-03-28T10:17:16.549Z,1029.08
2019-03-28T10:18:16.537Z,1029.07
2019-03-28T10:19:16.521Z,1029.09
2019-03-28T10:20:16.506Z,1029.08
2019-03-28T10:21:16.498Z,1029.08
2019-03-28T10:22:16.478Z,1029.07
2019-03-28T10:23:16.463Z,1029.06
2019-03-28T10:24:16.449Z,1029.05
2019-03-28T10:25:16.443Z,1029.08
2019-03-28T10:26:16.426Z,1029.03
2019-03-28T10:27:19.069Z,1029.07
2019-03-28T10:28:16.394Z,1029.14
2019-03-28T10:29:16.378Z,1029.11
2019-03-28T10:30:16.377Z,1029.11
2019-03-28T10:31:17.066Z,1029.10
2019-03-28T10:32:16.338Z,1029.12
2019-03-28T10:33:16.325Z,1029.10
2019-03-28T10:34:16.417Z,1029.10
2019-03-28T10:35:16.295Z,1029.12
2019-03-28T10:36:16.285Z,1029.11
2019-03-28T10:37:16.280Z,1029.10
2019-03-28T10:38:16.253Z,1029.06
2019-03-28T10:39:16.241Z,1029.08
2019-03-28T10:40:16.228Z,1029.03
2019-03-28T10:41:16.210Z,1029.06
2019-03-28T10:42:16.200Z,1029.02
2019-03-28T10:43:16.180Z,1029.05
2019-03-28T10:44:16.173Z,1029.04
2019-03-28T10:45:16.155Z,1029.06
2019-03-28T10:46:16.145Z,1029.08
2019-03-28T10:47:16.126Z,1029.11
2019-03-28T10:48:16.106Z,1029.11
2019-03-28T10:49:16.099Z,1029.08
2019-03-28T10:50:16.094Z,1029.05
2019-03-28T10:51:16.065Z,1029.00
2019-03-28T10:52:16.049Z,1029.00
2019-03-28T10:53:16.039Z,1029.00
2019-03-28T10:54:20.507Z,1028.96
2019-03-28T10:55:16.655Z,1028.97
2019-03-28T10:56:21.982Z,1028.95
2019-03-28T10:57:29.489Z,1028.98
2019-03-28T10:58:19.638Z,1028.96
2019-03-28T10:59:23.169Z,1028.93
2019-03-28T11:00:24.037Z,1028.94
2019-03-28T11:01:16.817Z,1028.92
2019-03-28T11:02:15.904Z,1028.99
2019-03-28T11:03:15.888Z,1029.00
2019-03-28T11:04:15.870Z,1029.01
2019-03-28T11:05:15.858Z,1028.99
2019-03-28T11:06:15.847Z,1029.00
2019-03-28T11:07:15.829Z,1029.00
2019-03-28T11:08:16.560Z,1029.00
2019-03-28T11:09:15.802Z,1029.00
2019-03-28T11:10:15.785Z,1029.00
2019-03-28T11:11:15.769Z,1029.04
2019-03-28T11:12:15.755Z,1029.05
2019-03-28T11:13:15.741Z,1029.02
2019-03-28T11:14:15.727Z,1029.00
2019-03-28T11:15:15.711Z,1028.99
2019-03-28T11:16:15.700Z,1028.99
2019-03-28T11:17:15.681Z,1028.99
2019-03-28T11:18:15.673Z,1029.00
2019-03-28T11:19:16.864Z,1028.98
2019-03-28T11:20:15.642Z,1028.99
2019-03-28T11:21:15.622Z,1028.98
2019-03-28T11:22:15.613Z,1028.97
2019-03-28T11:23:15.593Z,1029.01
2019-03-28T11:24:15.578Z,1028.97
2019-03-28T11:25:15.585Z,1028.96
2019-03-28T11:26:15.545Z,1028.95
2019-03-28T11:27:15.535Z,1028.94
2019-03-28T11:28:15.838Z,1028.90
2019-03-28T11:29:15.499Z,1028.92
2019-03-28T11:30:18.213Z,1028.89
2019-03-28T11:31:15.479Z,1028.89
2019-03-28T11:32:15.464Z,1028.89
2019-03-28T11:33:15.441Z,1028.94
2019-03-28T11:34:15.427Z,1028.91
2019-03-28T11:35:15.417Z,1028.90
2019-03-28T11:36:15.406Z,1028.89
2019-03-28T11:37:26.022Z,1028.93
2019-03-28T11:38:15.371Z,1028.93
2019-03-28T11:39:15.351Z,1028.91
2019-03-28T11:40:15.340Z,1028.94
2019-03-28T11:41:15.324Z,1028.94
2019-03-28T11:42:15.308Z,1028.94
2019-03-28T11:43:15.294Z,1028.94
2019-03-28T11:44:15.276Z,1028.94
2019-03-28T11:45:15.266Z,1028.91
2019-03-28T11:46:15.252Z,1028.90
2019-03-28T11:47:15.232Z,1028.95
2019-03-28T11:48:15.216Z,1028.92
2019-03-28T11:49:15.206Z,1028.93
2019-03-28T11:50:17.056Z,1028.93
2019-03-28T11:51:15.176Z,1028.94
2019-03-28T11:52:15.156Z,1028.95
2019-03-28T11:53:15.145Z,1028.94
2019-03-28T11:54:15.136Z,1028.95
2019-03-28T11:55:15.117Z,1028.94
2019-03-28T11:56:15.098Z,1028.94
2019-03-28T11:57:15.857Z,1028.90
2019-03-28T11:58:15.069Z,1028.89
2019-03-28T11:59:15.058Z,1028.89
2019-03-28T12:00:15.038Z,1028.90
2019-03-28T12:01:15.021Z,1028.88
2019-03-28T12:02:20.136Z,1028.87
2019-03-28T12:03:15.002Z,1028.85
2019-03-28T12:04:14.989Z,1028.87
2019-03-28T12:05:14.962Z,1028.86